sensor_id;sensor_type;location;lat;lon;timestamp;P1;durP1;ratioP1;P2;durP2;ratioP2
46875;SDS011;32866;50.160;14.768;2022-07-15T00:02:22;6.90;;;3.42;;
46875;SDS011;32866;50.160;14.768;2022-07-15T00:04:47;10.20;;;2.92;;
46875;SDS011;32866;50.160;14.768;2022-07-15T00:07:13;4.93;;;3.30;;
46875;SDS011;32866;50.160;14.768;2022-07-15T00:09:38;6.85;;;3.80;;
46875;SDS011;32866;50.160;14.768;2022-07-15T00:12:22;9.05;;;3.53;;
46875;SDS011;32866;50.160;14.768;2022-07-15T00:14:47;7.85;;;2.40;;
46875;SDS011;32866;50.160;14.768;2022-07-15T00:17:13;8.75;;;3.15;;
46875;SDS011;32866;50.160;14.768;2022-07-15T00:22:03;7.88;;;2.55;;
46875;SDS011;32866;50.160;14.768;2022-07-15T00:26:54;2.53;;;2.13;;
46875;SDS011;32866;50.160;14.768;2022-07-15T00:29:21;3.45;;;2.20;;
46875;SDS011;32866;50.160;14.768;2022-07-15T00:31:47;3.38;;;2.03;;
46875;SDS011;32866;50.160;14.768;2022-07-15T00:36:37;3.22;;;2.58;;
46875;SDS011;32866;50.160;14.768;2022-07-15T00:41:38;9.45;;;2.40;;
46875;SDS011;32866;50.160;14.768;2022-07-15T00:44:05;8.63;;;2.00;;
46875;SDS011;32866;50.160;14.768;2022-07-15T00:46:32;3.85;;;1.60;;
46875;SDS011;32866;50.160;14.768;2022-07-15T00:48:59;3.00;;;1.67;;
46875;SDS011;32866;50.160;14.768;2022-07-15T00:51:26;9.43;;;2.70;;
46875;SDS011;32866;50.160;14.768;2022-07-15T00:53:52;6.93;;;2.95;;
46875;SDS011;32866;50.160;14.768;2022-07-15T00:56:21;9.65;;;1.85;;
46875;SDS011;32866;50.160;14.768;2022-07-15T00:58:48;5.03;;;2.22;;
46875;SDS011;32866;50.160;14.768;2022-07-15T01:01:17;5.07;;;3.22;;
46875;SDS011;32866;50.160;14.768;2022-07-15T01:03:46;6.82;;;2.95;;
46875;SDS011;32866;50.160;14.768;2022-07-15T01:06:13;2.95;;;1.90;;
46875;SDS011;32866;50.160;14.768;2022-07-15T01:08:38;3.80;;;1.80;;
46875;SDS011;32866;50.160;14.768;2022-07-15T01:11:04;8.32;;;2.58;;
46875;SDS011;32866;50.160;14.768;2022-07-15T01:13:30;6.50;;;2.17;;
46875;SDS011;32866;50.160;14.768;2022-07-15T01:18:21;5.10;;;1.90;;
46875;SDS011;32866;50.160;14.768;2022-07-15T01:20:46;12.90;;;2.83;;
46875;SDS011;32866;50.160;14.768;2022-07-15T01:23:12;11.80;;;2.05;;
46875;SDS011;32866;50.160;14.768;2022-07-15T01:25:38;3.00;;;2.00;;
46875;SDS011;32866;50.160;14.768;2022-07-15T01:28:05;7.30;;;2.58;;
46875;SDS011;32866;50.160;14.768;2022-07-15T01:30:32;4.82;;;2.08;;
46875;SDS011;32866;50.160;14.768;2022-07-15T01:32:57;4.05;;;1.90;;
46875;SDS011;32866;50.160;14.768;2022-07-15T01:35:23;2.30;;;1.88;;
46875;SDS011;32866;50.160;14.768;2022-07-15T01:37:48;9.40;;;2.10;;
46875;SDS011;32866;50.160;14.768;2022-07-15T01:40:13;6.97;;;2.33;;
46875;SDS011;32866;50.160;14.768;2022-07-15T01:42:39;8.70;;;2.10;;
46875;SDS011;32866;50.160;14.768;2022-07-15T01:47:31;10.65;;;2.67;;
46875;SDS011;32866;50.160;14.768;2022-07-15T01:49:57;4.70;;;1.60;;
46875;SDS011;32866;50.160;14.768;2022-07-15T01:52:23;13.27;;;1.83;;
46875;SDS011;32866;50.160;14.768;2022-07-15T01:54:49;6.32;;;2.45;;
46875;SDS011;32866;50.160;14.768;2022-07-15T01:57:15;8.30;;;2.55;;
46875;SDS011;32866;50.160;14.768;2022-07-15T01:59:40;3.08;;;2.20;;
46875;SDS011;32866;50.160;14.768;2022-07-15T02:02:06;2.55;;;2.05;;
46875;SDS011;32866;50.160;14.768;2022-07-15T02:04:32;2.08;;;1.40;;
46875;SDS011;32866;50.160;14.768;2022-07-15T02:06:57;2.67;;;1.23;;
46875;SDS011;32866;50.160;14.768;2022-07-15T02:09:22;3.53;;;2.65;;
46875;SDS011;32866;50.160;14.768;2022-07-15T02:14:13;4.28;;;1.90;;
46875;SDS011;32866;50.160;14.768;2022-07-15T02:16:38;5.07;;;1.58;;
46875;SDS011;32866;50.160;14.768;2022-07-15T02:19:04;4.78;;;2.20;;
46875;SDS011;32866;50.160;14.768;2022-07-15T02:21:30;2.85;;;1.73;;
46875;SDS011;32866;50.160;14.768;2022-07-15T02:23:55;4.72;;;2.10;;
46875;SDS011;32866;50.160;14.768;2022-07-15T02:26:22;5.45;;;1.85;;
46875;SDS011;32866;50.160;14.768;2022-07-15T02:28:48;1.65;;;1.35;;
46875;SDS011;32866;50.160;14.768;2022-07-15T02:31:13;6.00;;;1.85;;
46875;SDS011;32866;50.160;14.768;2022-07-15T02:33:39;7.45;;;1.98;;
46875;SDS011;32866;50.160;14.768;2022-07-15T02:36:07;5.82;;;1.90;;
46875;SDS011;32866;50.160;14.768;2022-07-15T02:38:32;8.63;;;2.40;;
46875;SDS011;32866;50.160;14.768;2022-07-15T02:40:58;7.97;;;2.17;;
46875;SDS011;32866;50.160;14.768;2022-07-15T02:43:23;4.80;;;2.08;;
46875;SDS011;32866;50.160;14.768;2022-07-15T02:45:48;1.50;;;1.35;;
46875;SDS011;32866;50.160;14.768;2022-07-15T02:48:14;7.35;;;2.38;;
46875;SDS011;32866;50.160;14.768;2022-07-15T02:53:05;5.72;;;2.30;;
46875;SDS011;32866;50.160;14.768;2022-07-15T02:55:31;2.83;;;2.20;;
46875;SDS011;32866;50.160;14.768;2022-07-15T02:57:57;4.15;;;1.50;;
46875;SDS011;32866;50.160;14.768;2022-07-15T03:00:22;2.33;;;1.55;;
46875;SDS011;32866;50.160;14.768;2022-07-15T03:02:48;4.82;;;1.70;;
46875;SDS011;32866;50.160;14.768;2022-07-15T03:05:14;3.97;;;2.00;;
46875;SDS011;32866;50.160;14.768;2022-07-15T03:07:40;2.42;;;1.50;;
46875;SDS011;32866;50.160;14.768;2022-07-15T03:10:06;5.20;;;1.45;;
46875;SDS011;32866;50.160;14.768;2022-07-15T03:12:32;4.25;;;1.50;;
46875;SDS011;32866;50.160;14.768;2022-07-15T03:14:58;3.47;;;1.60;;
46875;SDS011;32866;50.160;14.768;2022-07-15T03:19:49;4.30;;;2.20;;
46875;SDS011;32866;50.160;14.768;2022-07-15T03:22:14;6.22;;;2.72;;
46875;SDS011;32866;50.160;14.768;2022-07-15T03:24:40;2.85;;;1.75;;
46875;SDS011;32866;50.160;14.768;2022-07-15T03:27:06;3.05;;;2.00;;
46875;SDS011;32866;50.160;14.768;2022-07-15T03:29:31;3.10;;;1.48;;
46875;SDS011;32866;50.160;14.768;2022-07-15T03:31:56;4.38;;;1.88;;
46875;SDS011;32866;50.160;14.768;2022-07-15T03:34:22;1.70;;;1.35;;
46875;SDS011;32866;50.160;14.768;2022-07-15T03:36:50;6.07;;;1.70;;
46875;SDS011;32866;50.160;14.768;2022-07-15T03:39:16;1.60;;;1.50;;
46875;SDS011;32866;50.160;14.768;2022-07-15T03:41:41;3.67;;;1.30;;
46875;SDS011;32866;50.160;14.768;2022-07-15T03:44:06;3.97;;;1.65;;
46875;SDS011;32866;50.160;14.768;2022-07-15T03:46:32;6.00;;;1.98;;
46875;SDS011;32866;50.160;14.768;2022-07-15T03:48:58;2.67;;;1.83;;
46875;SDS011;32866;50.160;14.768;2022-07-15T03:51:25;4.40;;;1.50;;
46875;SDS011;32866;50.160;14.768;2022-07-15T03:53:50;2.08;;;1.63;;
46875;SDS011;32866;50.160;14.768;2022-07-15T03:56:16;9.63;;;1.98;;
46875;SDS011;32866;50.160;14.768;2022-07-15T03:58:41;8.90;;;2.15;;
46875;SDS011;32866;50.160;14.768;2022-07-15T04:01:09;3.93;;;1.23;;
46875;SDS011;32866;50.160;14.768;2022-07-15T04:03:35;2.08;;;1.60;;
46875;SDS011;32866;50.160;14.768;2022-07-15T04:06:00;1.77;;;1.30;;
46875;SDS011;32866;50.160;14.768;2022-07-15T04:08:25;6.65;;;2.60;;
46875;SDS011;32866;50.160;14.768;2022-07-15T04:10:51;5.28;;;2.47;;
46875;SDS011;32866;50.160;14.768;2022-07-15T04:13:16;2.35;;;1.50;;
46875;SDS011;32866;50.160;14.768;2022-07-15T04:15:44;3.47;;;1.70;;
46875;SDS011;32866;50.160;14.768;2022-07-15T04:18:09;3.13;;;2.35;;
46875;SDS011;32866;50.160;14.768;2022-07-15T04:20:35;3.63;;;1.63;;
46875;SDS011;32866;50.160;14.768;2022-07-15T04:23:01;5.20;;;1.80;;
46875;SDS011;32866;50.160;14.768;2022-07-15T04:25:26;4.93;;;1.67;;
46875;SDS011;32866;50.160;14.768;2022-07-15T04:27:51;3.65;;;1.83;;
46875;SDS011;32866;50.160;14.768;2022-07-15T04:30:17;3.45;;;1.38;;
46875;SDS011;32866;50.160;14.768;2022-07-15T04:32:42;1.92;;;1.20;;
46875;SDS011;32866;50.160;14.768;2022-07-15T04:35:08;11.80;;;1.95;;
46875;SDS011;32866;50.160;14.768;2022-07-15T04:37:33;3.25;;;2.03;;
46875;SDS011;32866;50.160;14.768;2022-07-15T04:39:59;7.55;;;1.80;;
46875;SDS011;32866;50.160;14.768;2022-07-15T04:42:25;3.45;;;1.63;;
46875;SDS011;32866;50.160;14.768;2022-07-15T04:44:50;3.63;;;1.40;;
46875;SDS011;32866;50.160;14.768;2022-07-15T04:47:16;3.55;;;1.08;;
46875;SDS011;32866;50.160;14.768;2022-07-15T04:49:42;6.97;;;1.80;;
46875;SDS011;32866;50.160;14.768;2022-07-15T04:52:26;2.90;;;1.55;;
46875;SDS011;32866;50.160;14.768;2022-07-15T04:54:52;2.85;;;1.90;;
46875;SDS011;32866;50.160;14.768;2022-07-15T04:57:18;3.75;;;1.70;;
46875;SDS011;32866;50.160;14.768;2022-07-15T04:59:43;2.50;;;1.70;;
46875;SDS011;32866;50.160;14.768;2022-07-15T05:02:08;4.15;;;1.70;;
46875;SDS011;32866;50.160;14.768;2022-07-15T05:04:34;3.35;;;1.27;;
46875;SDS011;32866;50.160;14.768;2022-07-15T05:07:00;6.60;;;1.40;;
46875;SDS011;32866;50.160;14.768;2022-07-15T05:09:25;5.18;;;1.30;;
46875;SDS011;32866;50.160;14.768;2022-07-15T05:11:50;4.70;;;1.33;;
46875;SDS011;32866;50.160;14.768;2022-07-15T05:14:16;1.42;;;1.17;;
46875;SDS011;32866;50.160;14.768;2022-07-15T05:16:42;2.65;;;1.27;;
46875;SDS011;32866;50.160;14.768;2022-07-15T05:19:07;4.07;;;1.13;;
46875;SDS011;32866;50.160;14.768;2022-07-15T05:21:32;2.13;;;1.42;;
46875;SDS011;32866;50.160;14.768;2022-07-15T05:23:58;5.78;;;1.48;;
46875;SDS011;32866;50.160;14.768;2022-07-15T05:26:23;6.72;;;1.85;;
46875;SDS011;32866;50.160;14.768;2022-07-15T05:28:49;4.43;;;1.13;;
46875;SDS011;32866;50.160;14.768;2022-07-15T05:33:39;3.78;;;1.27;;
46875;SDS011;32866;50.160;14.768;2022-07-15T05:36:05;3.92;;;1.75;;
46875;SDS011;32866;50.160;14.768;2022-07-15T05:38:35;2.83;;;1.10;;
46875;SDS011;32866;50.160;14.768;2022-07-15T05:41:00;1.70;;;1.02;;
46875;SDS011;32866;50.160;14.768;2022-07-15T05:46:03;3.50;;;1.05;;
46875;SDS011;32866;50.160;14.768;2022-07-15T05:48:30;8.98;;;1.45;;
46875;SDS011;32866;50.160;14.768;2022-07-15T05:50:55;1.38;;;0.82;;
46875;SDS011;32866;50.160;14.768;2022-07-15T05:55:47;0.98;;;0.90;;
46875;SDS011;32866;50.160;14.768;2022-07-15T05:58:12;1.75;;;1.13;;
46875;SDS011;32866;50.160;14.768;2022-07-15T06:03:04;2.92;;;1.52;;
46875;SDS011;32866;50.160;14.768;2022-07-15T06:07:55;2.08;;;1.00;;
46875;SDS011;32866;50.160;14.768;2022-07-15T06:12:46;2.50;;;1.00;;
46875;SDS011;32866;50.160;14.768;2022-07-15T06:17:37;4.32;;;1.00;;
46875;SDS011;32866;50.160;14.768;2022-07-15T06:22:28;1.45;;;1.25;;
46875;SDS011;32866;50.160;14.768;2022-07-15T06:27:19;4.75;;;1.05;;
46875;SDS011;32866;50.160;14.768;2022-07-15T06:29:46;2.92;;;1.13;;
46875;SDS011;32866;50.160;14.768;2022-07-15T06:34:38;5.45;;;1.50;;
46875;SDS011;32866;50.160;14.768;2022-07-15T06:39:30;3.40;;;1.10;;
46875;SDS011;32866;50.160;14.768;2022-07-15T06:44:21;6.25;;;1.90;;
46875;SDS011;32866;50.160;14.768;2022-07-15T06:49:11;3.75;;;1.05;;
46875;SDS011;32866;50.160;14.768;2022-07-15T06:54:02;1.13;;;0.65;;
46875;SDS011;32866;50.160;14.768;2022-07-15T06:58:54;1.15;;;1.00;;
46875;SDS011;32866;50.160;14.768;2022-07-15T07:03:45;3.70;;;0.90;;
46875;SDS011;32866;50.160;14.768;2022-07-15T07:08:35;3.35;;;0.95;;
46875;SDS011;32866;50.160;14.768;2022-07-15T07:13:26;1.13;;;0.80;;
46875;SDS011;32866;50.160;14.768;2022-07-15T07:18:16;4.03;;;1.45;;
46875;SDS011;32866;50.160;14.768;2022-07-15T07:23:09;3.97;;;1.10;;
46875;SDS011;32866;50.160;14.768;2022-07-15T07:25:35;2.70;;;1.20;;
46875;SDS011;32866;50.160;14.768;2022-07-15T07:32:54;0.60;;;0.60;;
46875;SDS011;32866;50.160;14.768;2022-07-15T07:37:44;3.75;;;0.90;;
46875;SDS011;32866;50.160;14.768;2022-07-15T07:42:35;1.52;;;1.05;;
46875;SDS011;32866;50.160;14.768;2022-07-15T07:45:00;1.73;;;1.45;;
46875;SDS011;32866;50.160;14.768;2022-07-15T07:49:51;0.90;;;0.82;;
46875;SDS011;32866;50.160;14.768;2022-07-15T07:54:42;1.98;;;0.98;;
46875;SDS011;32866;50.160;14.768;2022-07-15T07:57:09;3.60;;;1.33;;
46875;SDS011;32866;50.160;14.768;2022-07-15T08:02:00;7.03;;;1.52;;
46875;SDS011;32866;50.160;14.768;2022-07-15T08:06:50;2.17;;;1.10;;
46875;SDS011;32866;50.160;14.768;2022-07-15T08:09:17;4.95;;;1.70;;
46875;SDS011;32866;50.160;14.768;2022-07-15T08:14:09;5.88;;;1.13;;
46875;SDS011;32866;50.160;14.768;2022-07-15T08:19:00;1.58;;;1.00;;
46875;SDS011;32866;50.160;14.768;2022-07-15T08:21:25;1.83;;;1.13;;
46875;SDS011;32866;50.160;14.768;2022-07-15T08:26:16;1.55;;;1.00;;
46875;SDS011;32866;50.160;14.768;2022-07-15T08:28:48;1.42;;;1.33;;
46875;SDS011;32866;50.160;14.768;2022-07-15T08:33:38;4.70;;;1.10;;
46875;SDS011;32866;50.160;14.768;2022-07-15T08:36:04;2.42;;;1.40;;
46875;SDS011;32866;50.160;14.768;2022-07-15T08:38:30;1.20;;;1.05;;
46875;SDS011;32866;50.160;14.768;2022-07-15T08:43:21;1.73;;;1.20;;
46875;SDS011;32866;50.160;14.768;2022-07-15T08:45:46;3.50;;;1.05;;
46875;SDS011;32866;50.160;14.768;2022-07-15T08:48:12;1.73;;;1.50;;
46875;SDS011;32866;50.160;14.768;2022-07-15T08:50:38;0.88;;;0.77;;
46875;SDS011;32866;50.160;14.768;2022-07-15T08:53:07;2.60;;;1.48;;
46875;SDS011;32866;50.160;14.768;2022-07-15T08:55:32;4.50;;;0.98;;
46875;SDS011;32866;50.160;14.768;2022-07-15T08:57:57;2.03;;;1.20;;
46875;SDS011;32866;50.160;14.768;2022-07-15T09:00:23;2.70;;;1.08;;
46875;SDS011;32866;50.160;14.768;2022-07-15T09:02:54;2.72;;;1.15;;
46875;SDS011;32866;50.160;14.768;2022-07-15T09:05:28;5.13;;;1.27;;
46875;SDS011;32866;50.160;14.768;2022-07-15T09:13:25;2.85;;;1.75;;
46875;SDS011;32866;50.160;14.768;2022-07-15T09:15:50;2.17;;;1.60;;
46875;SDS011;32866;50.160;14.768;2022-07-15T09:18:18;4.25;;;1.35;;
46875;SDS011;32866;50.160;14.768;2022-07-15T09:20:44;1.10;;;1.00;;
46875;SDS011;32866;50.160;14.768;2022-07-15T09:23:11;3.35;;;1.40;;
46875;SDS011;32866;50.160;14.768;2022-07-15T09:25:43;1.80;;;1.60;;
46875;SDS011;32866;50.160;14.768;2022-07-15T09:28:09;8.40;;;1.75;;
46875;SDS011;32866;50.160;14.768;2022-07-15T09:30:35;1.98;;;1.10;;
46875;SDS011;32866;50.160;14.768;2022-07-15T09:33:27;2.80;;;1.30;;
46875;SDS011;32866;50.160;14.768;2022-07-15T09:36:21;1.60;;;1.40;;
46875;SDS011;32866;50.160;14.768;2022-07-15T09:38:52;3.75;;;1.67;;
46875;SDS011;32866;50.160;14.768;2022-07-15T09:46:14;2.15;;;1.63;;
46875;SDS011;32866;50.160;14.768;2022-07-15T09:53:32;3.15;;;1.40;;
46875;SDS011;32866;50.160;14.768;2022-07-15T09:58:23;1.33;;;1.23;;
46875;SDS011;32866;50.160;14.768;2022-07-15T10:00:50;3.85;;;1.98;;
46875;SDS011;32866;50.160;14.768;2022-07-15T10:03:17;1.35;;;1.20;;
46875;SDS011;32866;50.160;14.768;2022-07-15T10:05:44;4.25;;;1.52;;
46875;SDS011;32866;50.160;14.768;2022-07-15T10:08:13;1.55;;;1.38;;
46875;SDS011;32866;50.160;14.768;2022-07-15T10:10:41;3.85;;;2.03;;
46875;SDS011;32866;50.160;14.768;2022-07-15T10:30:21;4.10;;;1.58;;
46875;SDS011;32866;50.160;14.768;2022-07-15T10:35:42;6.38;;;1.52;;
46875;SDS011;32866;50.160;14.768;2022-07-15T10:40:58;2.25;;;1.90;;
46875;SDS011;32866;50.160;14.768;2022-07-15T10:46:22;3.47;;;2.08;;
46875;SDS011;32866;50.160;14.768;2022-07-15T10:54:10;2.83;;;2.42;;
46875;SDS011;32866;50.160;14.768;2022-07-15T10:56:55;2.38;;;1.65;;
46875;SDS011;32866;50.160;14.768;2022-07-15T10:59:21;4.93;;;2.05;;
46875;SDS011;32866;50.160;14.768;2022-07-15T11:04:26;2.90;;;2.00;;
46875;SDS011;32866;50.160;14.768;2022-07-15T11:12:12;3.22;;;1.80;;
46875;SDS011;32866;50.160;14.768;2022-07-15T11:14:43;2.70;;;1.38;;
46875;SDS011;32866;50.160;14.768;2022-07-15T11:17:13;4.30;;;2.00;;
46875;SDS011;32866;50.160;14.768;2022-07-15T11:19:42;2.35;;;1.60;;
46875;SDS011;32866;50.160;14.768;2022-07-15T11:22:10;4.53;;;1.98;;
46875;SDS011;32866;50.160;14.768;2022-07-15T11:24:36;2.45;;;1.63;;
46875;SDS011;32866;50.160;14.768;2022-07-15T11:27:01;1.83;;;1.65;;
46875;SDS011;32866;50.160;14.768;2022-07-15T11:29:40;2.47;;;1.92;;
46875;SDS011;32866;50.160;14.768;2022-07-15T11:32:06;3.10;;;1.52;;
46875;SDS011;32866;50.160;14.768;2022-07-15T11:34:36;3.70;;;1.90;;
46875;SDS011;32866;50.160;14.768;2022-07-15T11:37:03;2.20;;;1.58;;
46875;SDS011;32866;50.160;14.768;2022-07-15T11:39:29;6.40;;;1.73;;
46875;SDS011;32866;50.160;14.768;2022-07-15T11:41:55;2.47;;;1.58;;
46875;SDS011;32866;50.160;14.768;2022-07-15T11:44:44;3.80;;;1.58;;
46875;SDS011;32866;50.160;14.768;2022-07-15T11:47:11;5.05;;;1.98;;
46875;SDS011;32866;50.160;14.768;2022-07-15T11:49:37;2.92;;;1.70;;
46875;SDS011;32866;50.160;14.768;2022-07-15T11:52:05;3.53;;;1.67;;
46875;SDS011;32866;50.160;14.768;2022-07-15T11:54:32;2.78;;;1.98;;
46875;SDS011;32866;50.160;14.768;2022-07-15T11:57:00;3.10;;;1.80;;
46875;SDS011;32866;50.160;14.768;2022-07-15T11:59:28;2.25;;;1.83;;
46875;SDS011;32866;50.160;14.768;2022-07-15T12:02:04;2.50;;;2.30;;
46875;SDS011;32866;50.160;14.768;2022-07-15T12:04:34;1.60;;;1.42;;
46875;SDS011;32866;50.160;14.768;2022-07-15T12:07:01;1.50;;;1.40;;
46875;SDS011;32866;50.160;14.768;2022-07-15T12:09:27;3.95;;;2.10;;
46875;SDS011;32866;50.160;14.768;2022-07-15T12:12:03;4.57;;;1.95;;
46875;SDS011;32866;50.160;14.768;2022-07-15T12:14:29;1.90;;;1.73;;
46875;SDS011;32866;50.160;14.768;2022-07-15T12:16:55;1.70;;;1.42;;
46875;SDS011;32866;50.160;14.768;2022-07-15T12:19:22;7.88;;;2.40;;
46875;SDS011;32866;50.160;14.768;2022-07-15T12:22:00;2.47;;;1.60;;
46875;SDS011;32866;50.160;14.768;2022-07-15T12:24:40;2.95;;;1.88;;
46875;SDS011;32866;50.160;14.768;2022-07-15T12:27:10;4.70;;;2.00;;
46875;SDS011;32866;50.160;14.768;2022-07-15T12:29:36;2.05;;;1.80;;
46875;SDS011;32866;50.160;14.768;2022-07-15T12:32:10;3.65;;;1.88;;
46875;SDS011;32866;50.160;14.768;2022-07-15T12:34:47;5.47;;;2.58;;
46875;SDS011;32866;50.160;14.768;2022-07-15T12:37:16;2.57;;;1.50;;
46875;SDS011;32866;50.160;14.768;2022-07-15T12:39:58;1.80;;;1.42;;
46875;SDS011;32866;50.160;14.768;2022-07-15T12:42:29;2.08;;;1.30;;
46875;SDS011;32866;50.160;14.768;2022-07-15T12:45:05;1.67;;;1.27;;
46875;SDS011;32866;50.160;14.768;2022-07-15T12:47:31;2.13;;;1.23;;
46875;SDS011;32866;50.160;14.768;2022-07-15T12:49:58;1.85;;;1.45;;
46875;SDS011;32866;50.160;14.768;2022-07-15T12:52:35;3.47;;;1.90;;
46875;SDS011;32866;50.160;14.768;2022-07-15T12:55:13;2.75;;;1.77;;
46875;SDS011;32866;50.160;14.768;2022-07-15T12:57:40;3.05;;;1.60;;
46875;SDS011;32866;50.160;14.768;2022-07-15T13:00:06;3.95;;;1.63;;
46875;SDS011;32866;50.160;14.768;2022-07-15T13:05:40;1.88;;;1.48;;
46875;SDS011;32866;50.160;14.768;2022-07-15T13:08:08;1.77;;;1.30;;
46875;SDS011;32866;50.160;14.768;2022-07-15T13:10:35;2.47;;;1.50;;
46875;SDS011;32866;50.160;14.768;2022-07-15T13:13:02;5.05;;;1.40;;
46875;SDS011;32866;50.160;14.768;2022-07-15T13:15:29;1.83;;;1.58;;
46875;SDS011;32866;50.160;14.768;2022-07-15T13:17:55;3.63;;;1.98;;
46875;SDS011;32866;50.160;14.768;2022-07-15T13:20:20;2.88;;;1.45;;
46875;SDS011;32866;50.160;14.768;2022-07-15T13:22:46;4.95;;;1.52;;
46875;SDS011;32866;50.160;14.768;2022-07-15T13:25:12;4.00;;;1.60;;
46875;SDS011;32866;50.160;14.768;2022-07-15T13:27:38;2.75;;;1.60;;
46875;SDS011;32866;50.160;14.768;2022-07-15T13:30:05;3.55;;;1.52;;
46875;SDS011;32866;50.160;14.768;2022-07-15T13:32:31;1.17;;;1.08;;
46875;SDS011;32866;50.160;14.768;2022-07-15T13:34:56;3.30;;;1.10;;
46875;SDS011;32866;50.160;14.768;2022-07-15T13:37:22;3.17;;;1.23;;
46875;SDS011;32866;50.160;14.768;2022-07-15T13:39:48;1.42;;;1.33;;
46875;SDS011;32866;50.160;14.768;2022-07-15T13:42:13;2.83;;;1.85;;
46875;SDS011;32866;50.160;14.768;2022-07-15T13:44:38;5.85;;;1.55;;
46875;SDS011;32866;50.160;14.768;2022-07-15T13:47:04;5.18;;;1.48;;
46875;SDS011;32866;50.160;14.768;2022-07-15T13:49:29;1.58;;;1.45;;
46875;SDS011;32866;50.160;14.768;2022-07-15T13:52:13;3.97;;;1.75;;
46875;SDS011;32866;50.160;14.768;2022-07-15T13:54:38;1.88;;;1.15;;
46875;SDS011;32866;50.160;14.768;2022-07-15T13:57:04;1.20;;;1.08;;
46875;SDS011;32866;50.160;14.768;2022-07-15T13:59:29;1.02;;;0.98;;
46875;SDS011;32866;50.160;14.768;2022-07-15T14:01:55;3.50;;;2.00;;
46875;SDS011;32866;50.160;14.768;2022-07-15T14:04:20;3.35;;;1.33;;
46875;SDS011;32866;50.160;14.768;2022-07-15T14:06:45;2.13;;;1.10;;
46875;SDS011;32866;50.160;14.768;2022-07-15T14:09:11;1.48;;;1.23;;
46875;SDS011;32866;50.160;14.768;2022-07-15T14:11:37;1.73;;;1.10;;
46875;SDS011;32866;50.160;14.768;2022-07-15T14:14:02;2.22;;;1.33;;
46875;SDS011;32866;50.160;14.768;2022-07-15T14:16:27;1.98;;;1.20;;
46875;SDS011;32866;50.160;14.768;2022-07-15T14:18:53;2.50;;;1.23;;
46875;SDS011;32866;50.160;14.768;2022-07-15T14:21:19;2.30;;;1.17;;
46875;SDS011;32866;50.160;14.768;2022-07-15T14:23:46;2.13;;;1.25;;
46875;SDS011;32866;50.160;14.768;2022-07-15T14:26:11;3.55;;;1.27;;
46875;SDS011;32866;50.160;14.768;2022-07-15T14:28:37;2.30;;;1.40;;
46875;SDS011;32866;50.160;14.768;2022-07-15T14:31:04;3.05;;;1.15;;
46875;SDS011;32866;50.160;14.768;2022-07-15T14:33:31;3.97;;;1.77;;
46875;SDS011;32866;50.160;14.768;2022-07-15T14:35:57;3.65;;;1.23;;
46875;SDS011;32866;50.160;14.768;2022-07-15T14:38:22;2.55;;;1.15;;
46875;SDS011;32866;50.160;14.768;2022-07-15T14:40:48;0.90;;;0.90;;
46875;SDS011;32866;50.160;14.768;2022-07-15T14:43:13;2.28;;;1.17;;
46875;SDS011;32866;50.160;14.768;2022-07-15T14:45:38;4.32;;;1.55;;
46875;SDS011;32866;50.160;14.768;2022-07-15T14:48:04;2.80;;;1.20;;
46875;SDS011;32866;50.160;14.768;2022-07-15T14:50:31;1.65;;;1.17;;
46875;SDS011;32866;50.160;14.768;2022-07-15T14:52:57;1.88;;;1.30;;
46875;SDS011;32866;50.160;14.768;2022-07-15T14:55:24;3.17;;;1.90;;
46875;SDS011;32866;50.160;14.768;2022-07-15T14:57:49;2.88;;;1.60;;
46875;SDS011;32866;50.160;14.768;2022-07-15T15:00:14;1.73;;;1.23;;
46875;SDS011;32866;50.160;14.768;2022-07-15T15:02:40;3.55;;;1.58;;
46875;SDS011;32866;50.160;14.768;2022-07-15T15:05:05;2.70;;;1.85;;
46875;SDS011;32866;50.160;14.768;2022-07-15T15:07:31;2.90;;;1.48;;
46875;SDS011;32866;50.160;14.768;2022-07-15T15:09:56;2.17;;;1.55;;
46875;SDS011;32866;50.160;14.768;2022-07-15T15:12:22;1.60;;;1.25;;
46875;SDS011;32866;50.160;14.768;2022-07-15T15:14:47;2.05;;;1.23;;
46875;SDS011;32866;50.160;14.768;2022-07-15T15:17:13;1.73;;;0.95;;
46875;SDS011;32866;50.160;14.768;2022-07-15T15:19:38;4.30;;;1.42;;
46875;SDS011;32866;50.160;14.768;2022-07-15T15:22:04;1.25;;;1.00;;
46875;SDS011;32866;50.160;14.768;2022-07-15T15:24:30;4.35;;;1.45;;
46875;SDS011;32866;50.160;14.768;2022-07-15T15:26:56;2.55;;;1.10;;
46875;SDS011;32866;50.160;14.768;2022-07-15T15:29:22;2.95;;;1.55;;
46875;SDS011;32866;50.160;14.768;2022-07-15T15:31:48;3.83;;;2.17;;
46875;SDS011;32866;50.160;14.768;2022-07-15T15:34:13;2.95;;;0.88;;
46875;SDS011;32866;50.160;14.768;2022-07-15T15:36:39;1.08;;;0.90;;
46875;SDS011;32866;50.160;14.768;2022-07-15T15:39:06;1.23;;;1.00;;
46875;SDS011;32866;50.160;14.768;2022-07-15T15:41:31;1.42;;;1.10;;
46875;SDS011;32866;50.160;14.768;2022-07-15T15:43:57;2.63;;;1.42;;
46875;SDS011;32866;50.160;14.768;2022-07-15T15:46:22;1.92;;;1.25;;
46875;SDS011;32866;50.160;14.768;2022-07-15T15:48:48;1.48;;;1.27;;
46875;SDS011;32866;50.160;14.768;2022-07-15T15:51:14;1.92;;;1.00;;
46875;SDS011;32866;50.160;14.768;2022-07-15T15:53:39;2.53;;;1.10;;
46875;SDS011;32866;50.160;14.768;2022-07-15T15:56:05;2.22;;;1.27;;
46875;SDS011;32866;50.160;14.768;2022-07-15T15:58:30;2.33;;;0.95;;
46875;SDS011;32866;50.160;14.768;2022-07-15T16:00:55;1.48;;;1.20;;
46875;SDS011;32866;50.160;14.768;2022-07-15T16:03:21;2.50;;;1.40;;
46875;SDS011;32866;50.160;14.768;2022-07-15T18:54:14;7.17;;;3.73;;
46875;SDS011;32866;50.160;14.768;2022-07-15T18:59:05;5.13;;;3.40;;
46875;SDS011;32866;50.160;14.768;2022-07-15T19:03:56;3.67;;;2.60;;
46875;SDS011;32866;50.160;14.768;2022-07-15T19:08:47;6.20;;;2.35;;
46875;SDS011;32866;50.160;14.768;2022-07-15T19:13:38;2.45;;;1.88;;
46875;SDS011;32866;50.160;14.768;2022-07-15T19:18:28;4.72;;;2.00;;
46875;SDS011;32866;50.160;14.768;2022-07-15T19:20:56;2.17;;;1.70;;
46875;SDS011;32866;50.160;14.768;2022-07-15T19:25:47;2.25;;;1.40;;
46875;SDS011;32866;50.160;14.768;2022-07-15T19:30:38;2.50;;;1.85;;
46875;SDS011;32866;50.160;14.768;2022-07-15T19:33:06;1.90;;;1.55;;
46875;SDS011;32866;50.160;14.768;2022-07-15T19:37:57;2.38;;;1.67;;
46875;SDS011;32866;50.160;14.768;2022-07-15T19:42:47;2.42;;;2.22;;
46875;SDS011;32866;50.160;14.768;2022-07-15T19:47:40;2.38;;;1.75;;
46875;SDS011;32866;50.160;14.768;2022-07-15T19:50:06;2.15;;;1.55;;
46875;SDS011;32866;50.160;14.768;2022-07-15T19:54:57;4.18;;;1.70;;
46875;SDS011;32866;50.160;14.768;2022-07-15T19:59:47;3.92;;;1.73;;
46875;SDS011;32866;50.160;14.768;2022-07-15T20:02:32;3.58;;;2.00;;
46875;SDS011;32866;50.160;14.768;2022-07-15T20:04:57;3.50;;;2.28;;
46875;SDS011;32866;50.160;14.768;2022-07-15T20:07:23;2.97;;;2.20;;
46875;SDS011;32866;50.160;14.768;2022-07-15T20:12:13;3.58;;;2.10;;
46875;SDS011;32866;50.160;14.768;2022-07-15T20:17:04;4.32;;;2.15;;
46875;SDS011;32866;50.160;14.768;2022-07-15T20:19:30;2.97;;;2.13;;
46875;SDS011;32866;50.160;14.768;2022-07-15T20:21:55;5.40;;;2.50;;
46875;SDS011;32866;50.160;14.768;2022-07-15T20:24:21;2.58;;;2.05;;
46875;SDS011;32866;50.160;14.768;2022-07-15T20:26:47;4.68;;;2.38;;
46875;SDS011;32866;50.160;14.768;2022-07-15T20:29:13;5.53;;;2.22;;
46875;SDS011;32866;50.160;14.768;2022-07-15T20:31:38;6.03;;;2.53;;
46875;SDS011;32866;50.160;14.768;2022-07-15T20:34:04;2.35;;;1.52;;
46875;SDS011;32866;50.160;14.768;2022-07-15T20:38:55;2.83;;;2.10;;